sensor_id;sensor_type;location;lat;lon;timestamp;P1;durP1;ratioP1;P2;durP2;ratioP2
24279;SDS011;12395;42.808;23.408;2023-11-19T00:02:20;4.23;;;2.03;;
24279;SDS011;12395;42.808;23.408;2023-11-19T00:04:45;3.17;;;2.30;;
24279;SDS011;12395;42.808;23.408;2023-11-19T00:07:11;5.03;;;3.10;;
24279;SDS011;12395;42.808;23.408;2023-11-19T00:09:38;4.57;;;2.45;;
24279;SDS011;12395;42.808;23.408;2023-11-19T00:12:04;3.50;;;2.20;;
24279;SDS011;12395;42.808;23.408;2023-11-19T00:14:30;3.17;;;1.80;;
24279;SDS011;12395;42.808;23.408;2023-11-19T00:16:56;2.77;;;2.00;;
24279;SDS011;12395;42.808;23.408;2023-11-19T00:19:21;2.43;;;1.70;;
24279;SDS011;12395;42.808;23.408;2023-11-19T00:21:47;2.60;;;1.67;;
24279;SDS011;12395;42.808;23.408;2023-11-19T00:24:12;2.47;;;1.73;;
24279;SDS011;12395;42.808;23.408;2023-11-19T00:26:41;3.43;;;2.10;;
24279;SDS011;12395;42.808;23.408;2023-11-19T00:29:06;3.83;;;2.23;;
24279;SDS011;12395;42.808;23.408;2023-11-19T00:31:32;4.50;;;2.40;;
24279;SDS011;12395;42.808;23.408;2023-11-19T00:33:57;3.60;;;2.60;;
24279;SDS011;12395;42.808;23.408;2023-11-19T00:36:23;2.67;;;2.40;;
24279;SDS011;12395;42.808;23.408;2023-11-19T00:38:49;3.87;;;2.70;;
24279;SDS011;12395;42.808;23.408;2023-11-19T00:41:14;3.10;;;2.20;;
24279;SDS011;12395;42.808;23.408;2023-11-19T00:43:41;3.75;;;2.58;;
24279;SDS011;12395;42.808;23.408;2023-11-19T00:46:07;3.70;;;2.63;;
24279;SDS011;12395;42.808;23.408;2023-11-19T00:48:32;4.73;;;2.60;;
24279;SDS011;12395;42.808;23.408;2023-11-19T00:50:58;4.20;;;2.67;;
24279;SDS011;12395;42.808;23.408;2023-11-19T00:53:23;3.77;;;2.97;;
24279;SDS011;12395;42.808;23.408;2023-11-19T00:55:49;4.37;;;2.70;;
24279;SDS011;12395;42.808;23.408;2023-11-19T00:58:14;4.33;;;3.00;;
24279;SDS011;12395;42.808;23.408;2023-11-19T01:00:39;4.83;;;3.10;;
24279;SDS011;12395;42.808;23.408;2023-11-19T01:03:05;5.50;;;2.80;;
24279;SDS011;12395;42.808;23.408;2023-11-19T01:05:32;4.43;;;2.75;;
24279;SDS011;12395;42.808;23.408;2023-11-19T01:07:57;5.77;;;3.00;;
24279;SDS011;12395;42.808;23.408;2023-11-19T01:10:23;5.37;;;3.10;;
24279;SDS011;12395;42.808;23.408;2023-11-19T01:12:49;4.43;;;3.13;;
24279;SDS011;12395;42.808;23.408;2023-11-19T01:15:15;4.67;;;2.93;;
24279;SDS011;12395;42.808;23.408;2023-11-19T01:17:43;5.83;;;3.13;;
24279;SDS011;12395;42.808;23.408;2023-11-19T01:20:09;5.23;;;3.30;;
24279;SDS011;12395;42.808;23.408;2023-11-19T01:22:37;5.90;;;2.87;;
24279;SDS011;12395;42.808;23.408;2023-11-19T01:25:02;5.33;;;3.13;;
24279;SDS011;12395;42.808;23.408;2023-11-19T01:27:30;4.53;;;3.00;;
24279;SDS011;12395;42.808;23.408;2023-11-19T01:29:55;4.90;;;3.23;;
24279;SDS011;12395;42.808;23.408;2023-11-19T01:32:21;6.20;;;3.10;;
24279;SDS011;12395;42.808;23.408;2023-11-19T01:37:14;5.67;;;3.20;;
24279;SDS011;12395;42.808;23.408;2023-11-19T01:39:39;5.17;;;2.97;;
24279;SDS011;12395;42.808;23.408;2023-11-19T01:42:05;5.13;;;2.90;;
24279;SDS011;12395;42.808;23.408;2023-11-19T01:44:30;4.20;;;3.10;;
24279;SDS011;12395;42.808;23.408;2023-11-19T01:46:57;4.57;;;2.87;;
24279;SDS011;12395;42.808;23.408;2023-11-19T01:49:22;5.40;;;3.20;;
24279;SDS011;12395;42.808;23.408;2023-11-19T01:51:48;4.17;;;2.87;;
24279;SDS011;12395;42.808;23.408;2023-11-19T01:54:14;4.87;;;3.00;;
24279;SDS011;12395;42.808;23.408;2023-11-19T01:56:40;4.67;;;2.97;;
24279;SDS011;12395;42.808;23.408;2023-11-19T01:59:06;5.13;;;3.03;;
24279;SDS011;12395;42.808;23.408;2023-11-19T02:01:34;5.43;;;3.00;;
24279;SDS011;12395;42.808;23.408;2023-11-19T02:04:04;5.10;;;3.10;;
24279;SDS011;12395;42.808;23.408;2023-11-19T02:06:31;5.60;;;2.87;;
24279;SDS011;12395;42.808;23.408;2023-11-19T02:08:58;3.78;;;3.03;;
24279;SDS011;12395;42.808;23.408;2023-11-19T02:11:23;5.07;;;2.70;;
24279;SDS011;12395;42.808;23.408;2023-11-19T02:13:54;4.10;;;2.83;;
24279;SDS011;12395;42.808;23.408;2023-11-19T02:16:20;6.03;;;3.17;;
24279;SDS011;12395;42.808;23.408;2023-11-19T02:18:45;5.10;;;3.10;;
24279;SDS011;12395;42.808;23.408;2023-11-19T02:21:10;4.27;;;2.90;;
24279;SDS011;12395;42.808;23.408;2023-11-19T02:23:36;4.13;;;2.90;;
24279;SDS011;12395;42.808;23.408;2023-11-19T02:26:12;5.10;;;2.90;;
24279;SDS011;12395;42.808;23.408;2023-11-19T02:28:53;4.60;;;2.70;;
24279;SDS011;12395;42.808;23.408;2023-11-19T02:31:18;4.23;;;2.90;;
24279;SDS011;12395;42.808;23.408;2023-11-19T02:33:44;5.23;;;3.10;;
24279;SDS011;12395;42.808;23.408;2023-11-19T02:36:09;4.07;;;2.80;;
24279;SDS011;12395;42.808;23.408;2023-11-19T02:38:35;4.27;;;2.87;;
24279;SDS011;12395;42.808;23.408;2023-11-19T02:41:04;4.87;;;3.10;;
24279;SDS011;12395;42.808;23.408;2023-11-19T02:43:34;5.07;;;2.77;;
24279;SDS011;12395;42.808;23.408;2023-11-19T02:46:01;5.13;;;2.87;;
24279;SDS011;12395;42.808;23.408;2023-11-19T02:48:27;5.45;;;3.05;;
24279;SDS011;12395;42.808;23.408;2023-11-19T02:50:52;4.60;;;3.03;;
24279;SDS011;12395;42.808;23.408;2023-11-19T02:53:18;4.73;;;3.17;;
24279;SDS011;12395;42.808;23.408;2023-11-19T02:55:46;5.13;;;3.00;;
24279;SDS011;12395;42.808;23.408;2023-11-19T02:58:14;4.97;;;3.00;;
24279;SDS011;12395;42.808;23.408;2023-11-19T03:00:48;4.63;;;2.90;;
24279;SDS011;12395;42.808;23.408;2023-11-19T03:03:19;4.97;;;3.00;;
24279;SDS011;12395;42.808;23.408;2023-11-19T03:05:47;5.00;;;3.00;;
24279;SDS011;12395;42.808;23.408;2023-11-19T03:08:13;4.87;;;3.20;;
24279;SDS011;12395;42.808;23.408;2023-11-19T03:10:40;5.90;;;3.03;;
24279;SDS011;12395;42.808;23.408;2023-11-19T03:13:05;5.27;;;3.10;;
24279;SDS011;12395;42.808;23.408;2023-11-19T03:15:37;6.07;;;3.00;;
24279;SDS011;12395;42.808;23.408;2023-11-19T03:18:02;5.60;;;3.20;;
24279;SDS011;12395;42.808;23.408;2023-11-19T03:20:30;6.03;;;3.30;;
24279;SDS011;12395;42.808;23.408;2023-11-19T03:22:56;6.30;;;2.97;;
24279;SDS011;12395;42.808;23.408;2023-11-19T03:25:24;6.20;;;3.30;;
24279;SDS011;12395;42.808;23.408;2023-11-19T03:27:50;6.80;;;3.70;;
24279;SDS011;12395;42.808;23.408;2023-11-19T03:30:16;4.97;;;3.13;;
24279;SDS011;12395;42.808;23.408;2023-11-19T03:32:42;6.57;;;3.27;;
24279;SDS011;12395;42.808;23.408;2023-11-19T03:35:08;4.73;;;2.90;;
24279;SDS011;12395;42.808;23.408;2023-11-19T03:37:34;4.10;;;2.80;;
24279;SDS011;12395;42.808;23.408;2023-11-19T03:39:59;5.63;;;3.43;;
24279;SDS011;12395;42.808;23.408;2023-11-19T03:42:28;4.40;;;2.90;;
24279;SDS011;12395;42.808;23.408;2023-11-19T03:44:57;4.97;;;2.87;;
24279;SDS011;12395;42.808;23.408;2023-11-19T03:47:23;5.77;;;3.00;;
24279;SDS011;12395;42.808;23.408;2023-11-19T03:49:48;5.57;;;3.13;;
24279;SDS011;12395;42.808;23.408;2023-11-19T03:52:15;4.90;;;3.23;;
24279;SDS011;12395;42.808;23.408;2023-11-19T03:54:40;4.97;;;3.03;;
24279;SDS011;12395;42.808;23.408;2023-11-19T03:57:06;5.87;;;3.13;;
24279;SDS011;12395;42.808;23.408;2023-11-19T03:59:31;5.47;;;3.07;;
24279;SDS011;12395;42.808;23.408;2023-11-19T04:01:58;5.73;;;3.00;;
24279;SDS011;12395;42.808;23.408;2023-11-19T04:04:25;4.65;;;3.33;;
24279;SDS011;12395;42.808;23.408;2023-11-19T04:06:51;4.00;;;2.77;;
24279;SDS011;12395;42.808;23.408;2023-11-19T04:09:16;5.27;;;3.17;;
24279;SDS011;12395;42.808;23.408;2023-11-19T04:11:42;6.97;;;3.10;;
24279;SDS011;12395;42.808;23.408;2023-11-19T04:14:07;4.87;;;3.17;;
24279;SDS011;12395;42.808;23.408;2023-11-19T04:16:33;6.93;;;3.60;;
24279;SDS011;12395;42.808;23.408;2023-11-19T04:18:58;5.37;;;2.97;;
24279;SDS011;12395;42.808;23.408;2023-11-19T04:21:23;4.90;;;2.80;;
24279;SDS011;12395;42.808;23.408;2023-11-19T04:23:49;5.50;;;3.20;;
24279;SDS011;12395;42.808;23.408;2023-11-19T04:26:14;5.50;;;3.17;;
24279;SDS011;12395;42.808;23.408;2023-11-19T04:28:40;6.80;;;3.70;;
24279;SDS011;12395;42.808;23.408;2023-11-19T04:31:06;5.53;;;3.37;;
24279;SDS011;12395;42.808;23.408;2023-11-19T04:33:31;6.07;;;3.10;;
24279;SDS011;12395;42.808;23.408;2023-11-19T04:35:57;5.53;;;3.23;;
24279;SDS011;12395;42.808;23.408;2023-11-19T04:38:22;5.83;;;3.40;;
24279;SDS011;12395;42.808;23.408;2023-11-19T04:40:47;6.00;;;3.47;;
24279;SDS011;12395;42.808;23.408;2023-11-19T04:43:13;5.53;;;3.40;;
24279;SDS011;12395;42.808;23.408;2023-11-19T04:45:38;5.90;;;3.37;;
24279;SDS011;12395;42.808;23.408;2023-11-19T04:48:05;8.07;;;3.90;;
24279;SDS011;12395;42.808;23.408;2023-11-19T04:50:30;6.60;;;3.50;;
24279;SDS011;12395;42.808;23.408;2023-11-19T04:52:56;7.97;;;3.90;;
24279;SDS011;12395;42.808;23.408;2023-11-19T04:55:21;6.83;;;3.50;;
24279;SDS011;12395;42.808;23.408;2023-11-19T04:57:47;6.10;;;3.80;;
24279;SDS011;12395;42.808;23.408;2023-11-19T05:00:12;7.07;;;3.73;;
24279;SDS011;12395;42.808;23.408;2023-11-19T05:02:38;8.07;;;4.33;;
24279;SDS011;12395;42.808;23.408;2023-11-19T05:05:04;7.20;;;4.20;;
24279;SDS011;12395;42.808;23.408;2023-11-19T05:07:30;6.70;;;4.13;;
24279;SDS011;12395;42.808;23.408;2023-11-19T05:09:55;8.80;;;3.97;;
24279;SDS011;12395;42.808;23.408;2023-11-19T05:12:21;6.90;;;3.60;;
24279;SDS011;12395;42.808;23.408;2023-11-19T05:14:48;8.30;;;4.03;;
24279;SDS011;12395;42.808;23.408;2023-11-19T05:17:15;5.72;;;3.50;;
24279;SDS011;12395;42.808;23.408;2023-11-19T05:19:43;7.18;;;3.58;;
24279;SDS011;12395;42.808;23.408;2023-11-19T05:22:08;7.47;;;3.67;;
24279;SDS011;12395;42.808;23.408;2023-11-19T05:24:33;7.20;;;3.70;;
24279;SDS011;12395;42.808;23.408;2023-11-19T05:26:59;7.83;;;4.10;;
24279;SDS011;12395;42.808;23.408;2023-11-19T05:29:24;6.80;;;3.93;;
24279;SDS011;12395;42.808;23.408;2023-11-19T05:31:50;6.47;;;3.70;;
24279;SDS011;12395;42.808;23.408;2023-11-19T05:34:15;6.70;;;3.97;;
24279;SDS011;12395;42.808;23.408;2023-11-19T05:36:40;9.13;;;5.47;;
24279;SDS011;12395;42.808;23.408;2023-11-19T05:39:06;9.17;;;5.10;;
24279;SDS011;12395;42.808;23.408;2023-11-19T05:41:31;8.97;;;5.20;;
24279;SDS011;12395;42.808;23.408;2023-11-19T05:43:57;8.13;;;4.10;;
24279;SDS011;12395;42.808;23.408;2023-11-19T05:46:22;7.37;;;4.10;;
24279;SDS011;12395;42.808;23.408;2023-11-19T05:48:48;7.00;;;3.80;;
24279;SDS011;12395;42.808;23.408;2023-11-19T05:51:13;8.13;;;4.67;;
24279;SDS011;12395;42.808;23.408;2023-11-19T05:53:40;8.07;;;4.40;;
24279;SDS011;12395;42.808;23.408;2023-11-19T05:56:05;7.93;;;4.20;;
24279;SDS011;12395;42.808;23.408;2023-11-19T05:58:34;7.37;;;4.30;;
24279;SDS011;12395;42.808;23.408;2023-11-19T06:01:01;8.33;;;4.73;;
24279;SDS011;12395;42.808;23.408;2023-11-19T06:03:26;7.57;;;4.30;;
24279;SDS011;12395;42.808;23.408;2023-11-19T06:05:52;6.97;;;3.83;;
24279;SDS011;12395;42.808;23.408;2023-11-19T06:08:19;7.95;;;4.20;;
24279;SDS011;12395;42.808;23.408;2023-11-19T06:10:45;7.57;;;4.00;;
24279;SDS011;12395;42.808;23.408;2023-11-19T06:13:11;7.33;;;3.93;;
24279;SDS011;12395;42.808;23.408;2023-11-19T06:15:40;7.73;;;4.27;;
24279;SDS011;12395;42.808;23.408;2023-11-19T06:18:09;8.23;;;4.27;;
24279;SDS011;12395;42.808;23.408;2023-11-19T06:20:36;7.88;;;4.65;;
24279;SDS011;12395;42.808;23.408;2023-11-19T06:23:02;6.87;;;4.00;;
24279;SDS011;12395;42.808;23.408;2023-11-19T06:25:27;7.23;;;4.00;;
24279;SDS011;12395;42.808;23.408;2023-11-19T06:27:53;8.13;;;4.23;;
24279;SDS011;12395;42.808;23.408;2023-11-19T06:30:19;8.20;;;4.30;;
24279;SDS011;12395;42.808;23.408;2023-11-19T06:32:45;7.03;;;3.67;;
24279;SDS011;12395;42.808;23.408;2023-11-19T06:35:11;7.60;;;3.90;;
24279;SDS011;12395;42.808;23.408;2023-11-19T06:37:39;8.77;;;4.13;;
24279;SDS011;12395;42.808;23.408;2023-11-19T06:40:06;6.90;;;3.90;;
24279;SDS011;12395;42.808;23.408;2023-11-19T06:42:32;7.30;;;3.80;;
24279;SDS011;12395;42.808;23.408;2023-11-19T06:45:05;7.60;;;3.80;;
24279;SDS011;12395;42.808;23.408;2023-11-19T06:47:31;8.93;;;4.13;;
24279;SDS011;12395;42.808;23.408;2023-11-19T06:49:58;8.43;;;4.10;;
24279;SDS011;12395;42.808;23.408;2023-11-19T06:52:23;8.27;;;4.27;;
24279;SDS011;12395;42.808;23.408;2023-11-19T06:54:49;7.67;;;4.07;;
24279;SDS011;12395;42.808;23.408;2023-11-19T06:57:14;7.50;;;3.80;;
24279;SDS011;12395;42.808;23.408;2023-11-19T06:59:40;7.53;;;4.00;;
24279;SDS011;12395;42.808;23.408;2023-11-19T07:02:06;6.90;;;3.80;;
24279;SDS011;12395;42.808;23.408;2023-11-19T07:04:31;8.10;;;4.07;;
24279;SDS011;12395;42.808;23.408;2023-11-19T07:06:58;8.03;;;4.10;;
24279;SDS011;12395;42.808;23.408;2023-11-19T07:09:24;6.90;;;3.90;;
24279;SDS011;12395;42.808;23.408;2023-11-19T07:11:50;7.97;;;4.20;;
24279;SDS011;12395;42.808;23.408;2023-11-19T07:14:17;10.83;;;4.43;;
24279;SDS011;12395;42.808;23.408;2023-11-19T07:16:43;6.80;;;3.53;;
24279;SDS011;12395;42.808;23.408;2023-11-19T07:19:08;7.07;;;4.00;;
24279;SDS011;12395;42.808;23.408;2023-11-19T07:21:34;8.23;;;3.97;;
24279;SDS011;12395;42.808;23.408;2023-11-19T07:24:00;7.33;;;4.00;;
24279;SDS011;12395;42.808;23.408;2023-11-19T07:26:25;7.30;;;3.77;;
24279;SDS011;12395;42.808;23.408;2023-11-19T07:28:52;6.97;;;3.83;;
24279;SDS011;12395;42.808;23.408;2023-11-19T07:31:17;7.27;;;3.90;;
24279;SDS011;12395;42.808;23.408;2023-11-19T07:33:44;10.40;;;3.97;;
24279;SDS011;12395;42.808;23.408;2023-11-19T07:36:11;8.23;;;4.13;;
24279;SDS011;12395;42.808;23.408;2023-11-19T07:38:37;8.30;;;4.20;;
24279;SDS011;12395;42.808;23.408;2023-11-19T07:41:03;7.73;;;4.17;;
24279;SDS011;12395;42.808;23.408;2023-11-19T07:43:30;8.75;;;4.47;;
24279;SDS011;12395;42.808;23.408;2023-11-19T07:45:55;9.30;;;3.60;;
24279;SDS011;12395;42.808;23.408;2023-11-19T07:48:21;7.27;;;4.10;;
24279;SDS011;12395;42.808;23.408;2023-11-19T07:50:48;8.00;;;4.20;;
24279;SDS011;12395;42.808;23.408;2023-11-19T07:53:17;7.60;;;3.60;;
24279;SDS011;12395;42.808;23.408;2023-11-19T07:55:43;7.63;;;4.17;;
24279;SDS011;12395;42.808;23.408;2023-11-19T07:58:09;7.50;;;4.27;;
24279;SDS011;12395;42.808;23.408;2023-11-19T08:00:38;8.93;;;4.10;;
24279;SDS011;12395;42.808;23.408;2023-11-19T08:03:03;8.83;;;4.27;;
24279;SDS011;12395;42.808;23.408;2023-11-19T08:05:29;7.87;;;4.10;;
24279;SDS011;12395;42.808;23.408;2023-11-19T08:07:54;9.30;;;4.20;;
24279;SDS011;12395;42.808;23.408;2023-11-19T08:10:20;8.20;;;4.00;;
24279;SDS011;12395;42.808;23.408;2023-11-19T08:12:45;10.33;;;4.53;;
24279;SDS011;12395;42.808;23.408;2023-11-19T08:15:11;7.47;;;4.13;;
24279;SDS011;12395;42.808;23.408;2023-11-19T08:17:36;7.17;;;4.07;;
24279;SDS011;12395;42.808;23.408;2023-11-19T08:20:02;7.40;;;3.77;;
24279;SDS011;12395;42.808;23.408;2023-11-19T08:22:29;7.22;;;4.15;;
24279;SDS011;12395;42.808;23.408;2023-11-19T08:24:55;8.10;;;3.63;;
24279;SDS011;12395;42.808;23.408;2023-11-19T08:27:20;9.00;;;4.83;;
24279;SDS011;12395;42.808;23.408;2023-11-19T08:29:52;8.07;;;4.00;;
24279;SDS011;12395;42.808;23.408;2023-11-19T08:32:19;7.35;;;3.83;;
24279;SDS011;12395;42.808;23.408;2023-11-19T08:34:44;7.60;;;3.80;;
24279;SDS011;12395;42.808;23.408;2023-11-19T08:37:09;7.83;;;4.00;;
24279;SDS011;12395;42.808;23.408;2023-11-19T08:39:35;7.83;;;3.53;;
24279;SDS011;12395;42.808;23.408;2023-11-19T08:42:02;5.65;;;3.20;;
24279;SDS011;12395;42.808;23.408;2023-11-19T08:44:28;6.47;;;3.80;;
24279;SDS011;12395;42.808;23.408;2023-11-19T08:46:53;7.10;;;4.13;;
24279;SDS011;12395;42.808;23.408;2023-11-19T08:49:19;7.60;;;4.27;;
24279;SDS011;12395;42.808;23.408;2023-11-19T08:51:44;6.97;;;3.37;;
24279;SDS011;12395;42.808;23.408;2023-11-19T08:54:10;8.40;;;4.20;;
24279;SDS011;12395;42.808;23.408;2023-11-19T08:56:36;8.97;;;4.17;;
24279;SDS011;12395;42.808;23.408;2023-11-19T08:59:01;7.17;;;3.73;;
24279;SDS011;12395;42.808;23.408;2023-11-19T09:01:27;6.67;;;3.90;;
24279;SDS011;12395;42.808;23.408;2023-11-19T09:03:53;7.47;;;3.80;;
24279;SDS011;12395;42.808;23.408;2023-11-19T09:06:19;9.00;;;4.40;;
24279;SDS011;12395;42.808;23.408;2023-11-19T09:08:44;9.23;;;4.33;;
24279;SDS011;12395;42.808;23.408;2023-11-19T09:11:09;7.67;;;4.10;;
24279;SDS011;12395;42.808;23.408;2023-11-19T09:13:35;10.13;;;4.40;;
24279;SDS011;12395;42.808;23.408;2023-11-19T09:16:01;8.23;;;4.17;;
24279;SDS011;12395;42.808;23.408;2023-11-19T09:18:31;8.57;;;4.50;;
24279;SDS011;12395;42.808;23.408;2023-11-19T09:20:57;7.70;;;3.90;;
24279;SDS011;12395;42.808;23.408;2023-11-19T09:23:23;9.03;;;4.10;;
24279;SDS011;12395;42.808;23.408;2023-11-19T09:25:54;6.00;;;3.77;;
24279;SDS011;12395;42.808;23.408;2023-11-19T09:28:19;7.50;;;4.07;;
24279;SDS011;12395;42.808;23.408;2023-11-19T09:30:45;7.03;;;3.77;;
24279;SDS011;12395;42.808;23.408;2023-11-19T09:33:10;7.17;;;3.93;;
24279;SDS011;12395;42.808;23.408;2023-11-19T09:35:35;7.40;;;3.80;;
24279;SDS011;12395;42.808;23.408;2023-11-19T09:38:01;6.23;;;3.50;;
24279;SDS011;12395;42.808;23.408;2023-11-19T09:40:27;7.53;;;4.27;;
24279;SDS011;12395;42.808;23.408;2023-11-19T09:42:53;7.60;;;4.00;;
24279;SDS011;12395;42.808;23.408;2023-11-19T09:45:20;5.60;;;3.57;;
24279;SDS011;12395;42.808;23.408;2023-11-19T09:47:46;7.30;;;3.72;;
24279;SDS011;12395;42.808;23.408;2023-11-19T09:50:14;7.17;;;3.67;;
24279;SDS011;12395;42.808;23.408;2023-11-19T09:52:43;5.97;;;3.13;;
24279;SDS011;12395;42.808;23.408;2023-11-19T09:55:09;6.73;;;3.80;;
24279;SDS011;12395;42.808;23.408;2023-11-19T09:57:34;7.33;;;4.10;;
24279;SDS011;12395;42.808;23.408;2023-11-19T10:00:03;6.80;;;3.43;;
24279;SDS011;12395;42.808;23.408;2023-11-19T10:02:33;8.15;;;3.88;;
24279;SDS011;12395;42.808;23.408;2023-11-19T10:05:11;7.07;;;3.60;;
24279;SDS011;12395;42.808;23.408;2023-11-19T10:07:38;6.67;;;3.73;;
24279;SDS011;12395;42.808;23.408;2023-11-19T10:10:04;6.37;;;3.53;;
24279;SDS011;12395;42.808;23.408;2023-11-19T10:12:29;7.37;;;3.80;;
24279;SDS011;12395;42.808;23.408;2023-11-19T10:14:56;6.33;;;3.67;;
24279;SDS011;12395;42.808;23.408;2023-11-19T10:17:32;6.10;;;3.50;;
24279;SDS011;12395;42.808;23.408;2023-11-19T10:19:58;7.93;;;3.83;;
24279;SDS011;12395;42.808;23.408;2023-11-19T10:22:24;6.70;;;3.90;;
24279;SDS011;12395;42.808;23.408;2023-11-19T10:24:50;6.93;;;3.80;;
24279;SDS011;12395;42.808;23.408;2023-11-19T10:27:15;6.00;;;3.77;;
24279;SDS011;12395;42.808;23.408;2023-11-19T10:29:43;6.90;;;3.83;;
24279;SDS011;12395;42.808;23.408;2023-11-19T10:32:10;6.47;;;3.73;;
24279;SDS011;12395;42.808;23.408;2023-11-19T10:34:38;6.70;;;3.80;;
24279;SDS011;12395;42.808;23.408;2023-11-19T10:37:04;6.30;;;3.73;;
24279;SDS011;12395;42.808;23.408;2023-11-19T10:42:21;5.53;;;3.47;;
24279;SDS011;12395;42.808;23.408;2023-11-19T10:44:47;7.20;;;3.63;;
24279;SDS011;12395;42.808;23.408;2023-11-19T10:47:14;7.20;;;3.93;;
24279;SDS011;12395;42.808;23.408;2023-11-19T10:49:42;6.53;;;3.57;;
24279;SDS011;12395;42.808;23.408;2023-11-19T10:52:08;7.83;;;3.97;;
24279;SDS011;12395;42.808;23.408;2023-11-19T10:54:34;6.80;;;3.60;;
24279;SDS011;12395;42.808;23.408;2023-11-19T10:56:59;7.53;;;3.93;;
24279;SDS011;12395;42.808;23.408;2023-11-19T10:59:30;6.35;;;3.83;;
24279;SDS011;12395;42.808;23.408;2023-11-19T11:02:00;5.37;;;3.40;;
24279;SDS011;12395;42.808;23.408;2023-11-19T11:04:30;7.00;;;3.43;;
24279;SDS011;12395;42.808;23.408;2023-11-19T11:06:58;6.60;;;3.70;;
24279;SDS011;12395;42.808;23.408;2023-11-19T11:09:28;7.32;;;3.65;;
24279;SDS011;12395;42.808;23.408;2023-11-19T11:11:55;7.17;;;3.40;;
24279;SDS011;12395;42.808;23.408;2023-11-19T11:14:22;6.70;;;3.50;;
24279;SDS011;12395;42.808;23.408;2023-11-19T11:16:50;5.57;;;3.33;;
24279;SDS011;12395;42.808;23.408;2023-11-19T11:19:16;7.43;;;3.60;;
24279;SDS011;12395;42.808;23.408;2023-11-19T11:21:44;5.93;;;3.40;;
24279;SDS011;12395;42.808;23.408;2023-11-19T11:27:16;6.90;;;3.57;;
24279;SDS011;12395;42.808;23.408;2023-11-19T11:33:04;6.37;;;3.20;;
24279;SDS011;12395;42.808;23.408;2023-11-19T11:38:34;6.50;;;3.47;;
24279;SDS011;12395;42.808;23.408;2023-11-19T11:43:58;6.57;;;3.20;;
24279;SDS011;12395;42.808;23.408;2023-11-19T11:49:04;6.17;;;3.77;;
24279;SDS011;12395;42.808;23.408;2023-11-19T11:57:00;4.90;;;3.03;;
24279;SDS011;12395;42.808;23.408;2023-11-19T11:59:31;5.80;;;3.47;;
24279;SDS011;12395;42.808;23.408;2023-11-19T12:02:02;5.50;;;3.40;;
24279;SDS011;12395;42.808;23.408;2023-11-19T12:04:28;5.50;;;3.20;;
24279;SDS011;12395;42.808;23.408;2023-11-19T12:07:07;6.37;;;3.43;;
24279;SDS011;12395;42.808;23.408;2023-11-19T12:09:38;6.60;;;3.40;;
24279;SDS011;12395;42.808;23.408;2023-11-19T12:12:17;5.97;;;3.50;;
24279;SDS011;12395;42.808;23.408;2023-11-19T12:15:01;5.73;;;3.40;;
24279;SDS011;12395;42.808;23.408;2023-11-19T12:20:02;5.80;;;3.20;;
24279;SDS011;12395;42.808;23.408;2023-11-19T12:22:39;4.30;;;2.90;;
24279;SDS011;12395;42.808;23.408;2023-11-19T12:25:06;5.75;;;3.28;;
24279;SDS011;12395;42.808;23.408;2023-11-19T12:27:33;4.72;;;2.90;;
24279;SDS011;12395;42.808;23.408;2023-11-19T12:30:00;5.33;;;3.03;;
24279;SDS011;12395;42.808;23.408;2023-11-19T12:32:25;5.73;;;3.17;;
24279;SDS011;12395;42.808;23.408;2023-11-19T12:34:52;5.55;;;2.80;;
24279;SDS011;12395;42.808;23.408;2023-11-19T12:37:18;5.37;;;2.90;;
24279;SDS011;12395;42.808;23.408;2023-11-19T12:39:43;3.43;;;2.50;;
24279;SDS011;12395;42.808;23.408;2023-11-19T12:42:09;5.00;;;2.90;;
24279;SDS011;12395;42.808;23.408;2023-11-19T12:44:36;4.72;;;2.97;;
24279;SDS011;12395;42.808;23.408;2023-11-19T12:47:05;4.97;;;2.80;;
24279;SDS011;12395;42.808;23.408;2023-11-19T12:49:32;4.90;;;3.20;;
24279;SDS011;12395;42.808;23.408;2023-11-19T12:51:58;4.77;;;3.03;;
24279;SDS011;12395;42.808;23.408;2023-11-19T12:54:37;3.50;;;2.55;;
24279;SDS011;12395;42.808;23.408;2023-11-19T12:57:03;4.75;;;3.00;;
24279;SDS011;12395;42.808;23.408;2023-11-19T12:59:30;3.85;;;2.50;;
24279;SDS011;12395;42.808;23.408;2023-11-19T13:01:56;5.00;;;2.70;;
24279;SDS011;12395;42.808;23.408;2023-11-19T13:04:29;3.53;;;2.57;;
24279;SDS011;12395;42.808;23.408;2023-11-19T13:07:01;4.67;;;2.60;;
24279;SDS011;12395;42.808;23.408;2023-11-19T13:09:29;4.50;;;2.80;;
24279;SDS011;12395;42.808;23.408;2023-11-19T13:11:55;4.07;;;2.33;;
24279;SDS011;12395;42.808;23.408;2023-11-19T13:14:21;3.33;;;2.37;;
24279;SDS011;12395;42.808;23.408;2023-11-19T13:16:48;3.60;;;2.33;;
24279;SDS011;12395;42.808;23.408;2023-11-19T13:19:14;3.70;;;2.50;;
24279;SDS011;12395;42.808;23.408;2023-11-19T13:21:44;4.03;;;2.63;;
24279;SDS011;12395;42.808;23.408;2023-11-19T13:24:11;4.03;;;2.60;;
24279;SDS011;12395;42.808;23.408;2023-11-19T13:26:37;5.00;;;2.50;;
24279;SDS011;12395;42.808;23.408;2023-11-19T13:29:03;4.33;;;2.30;;
24279;SDS011;12395;42.808;23.408;2023-11-19T13:31:29;4.40;;;2.50;;
24279;SDS011;12395;42.808;23.408;2023-11-19T13:33:55;5.10;;;2.60;;
24279;SDS011;12395;42.808;23.408;2023-11-19T13:36:21;3.40;;;2.40;;
24279;SDS011;12395;42.808;23.408;2023-11-19T13:38:47;3.55;;;2.47;;
24279;SDS011;12395;42.808;23.408;2023-11-19T13:41:12;3.57;;;2.30;;
24279;SDS011;12395;42.808;23.408;2023-11-19T13:43:39;4.90;;;2.37;;
24279;SDS011;12395;42.808;23.408;2023-11-19T13:46:05;6.03;;;2.63;;
24279;SDS011;12395;42.808;23.408;2023-11-19T13:48:30;4.83;;;2.50;;
24279;SDS011;12395;42.808;23.408;2023-11-19T13:50:56;3.43;;;2.20;;
24279;SDS011;12395;42.808;23.408;2023-11-19T13:53:22;3.80;;;2.13;;
24279;SDS011;12395;42.808;23.408;2023-11-19T13:55:48;3.42;;;2.10;;
24279;SDS011;12395;42.808;23.408;2023-11-19T13:58:14;3.47;;;2.20;;
24279;SDS011;12395;42.808;23.408;2023-11-19T14:00:39;3.47;;;2.30;;
24279;SDS011;12395;42.808;23.408;2023-11-19T14:03:07;3.47;;;2.25;;
24279;SDS011;12395;42.808;23.408;2023-11-19T14:05:32;4.93;;;2.90;;
24279;SDS011;12395;42.808;23.408;2023-11-19T14:07:57;5.70;;;3.10;;
24279;SDS011;12395;42.808;23.408;2023-11-19T14:10:23;6.85;;;3.38;;
24279;SDS011;12395;42.808;23.408;2023-11-19T14:12:48;5.53;;;3.10;;
24279;SDS011;12395;42.808;23.408;2023-11-19T14:15:17;7.45;;;3.45;;
24279;SDS011;12395;42.808;23.408;2023-11-19T14:17:43;6.05;;;3.33;;
24279;SDS011;12395;42.808;23.408;2023-11-19T14:20:08;7.70;;;3.57;;
24279;SDS011;12395;42.808;23.408;2023-11-19T14:22:44;6.50;;;3.13;;
24279;SDS011;12395;42.808;23.408;2023-11-19T14:25:14;5.80;;;2.97;;
24279;SDS011;12395;42.808;23.408;2023-11-19T14:27:40;5.63;;;3.40;;
24279;SDS011;12395;42.808;23.408;2023-11-19T14:30:07;8.50;;;4.10;;
24279;SDS011;12395;42.808;23.408;2023-11-19T14:32:36;7.57;;;3.67;;
24279;SDS011;12395;42.808;23.408;2023-11-19T14:35:02;7.15;;;3.65;;
24279;SDS011;12395;42.808;23.408;2023-11-19T14:37:28;7.63;;;3.50;;
24279;SDS011;12395;42.808;23.408;2023-11-19T14:39:55;8.68;;;4.10;;
24279;SDS011;12395;42.808;23.408;2023-11-19T14:42:22;8.02;;;3.83;;
24279;SDS011;12395;42.808;23.408;2023-11-19T14:44:48;8.93;;;4.13;;
24279;SDS011;12395;42.808;23.408;2023-11-19T14:47:14;8.43;;;4.20;;
24279;SDS011;12395;42.808;23.408;2023-11-19T14:49:39;8.63;;;4.70;;
24279;SDS011;12395;42.808;23.408;2023-11-19T14:52:04;9.20;;;4.43;;
24279;SDS011;12395;42.808;23.408;2023-11-19T14:54:30;7.13;;;4.13;;
24279;SDS011;12395;42.808;23.408;2023-11-19T14:56:56;9.90;;;4.40;;
24279;SDS011;12395;42.808;23.408;2023-11-19T14:59:21;7.53;;;3.80;;